Terminal Aerodrome Forecast
Issued by NWS Newport/Morehead City, NC

Home | Current Version | Previous Version | Text Only | Print | Product List | Glossary On
Versions: 1 2 3 4 5 6 7 8 9 10 11 12 13 14 15 16 17 18 19
000
FTUS42 KMHX 251600 AAD
TAFEWN
TAF AMD
KEWN 251645Z 2517/2612 06005KT P6SM SCT030
     FM252300 12005KT P6SM SCT250
     FM260600 00000KT 3SM BR SCT004=

USA.gov is the U.S. government's official web portal to all federal, state and local government web resources and services.